Time;durP1;ratioP1;P1;durP2;ratioP2;P2;SDS_P1;SDS_P2;PMS_P1;PMS_P2;Temp;Humidity;BMP_temperature;BMP_pressure;BME280_temperature;BME280_humidity;BME280_pressure;Samples;Min_cycle;Max_cycle;Signal;HPM_P1;HPM_P2
2021/05/25 00:01:18;;;;;;;3.20;1.45;;;8.90;99.90;;;;;;4717931;30;20053;-88
2021/05/25 00:03:56;;;;;;;1.52;1.25;;;9.00;99.90;;;;;;4718277;30;20068;-87
2021/05/25 00:06:26;;;;;;;1.60;1.35;;;9.10;99.90;;;;;;4733635;30;20049;-81
2021/05/25 00:08:54;;;;;;;1.98;1.30;;;9.20;99.90;;;;;;4723396;30;20052;-82
2021/05/25 00:11:42;;;;;;;0.70;0.70;;;9.30;99.90;;;;;;4726350;30;20529;-82
2021/05/25 00:14:21;;;;;;;1.17;1.10;;;9.30;99.90;;;;;;4721674;30;20063;-82
2021/05/25 00:16:52;;;;;;;1.63;1.00;;;9.30;99.90;;;;;;4763449;30;20064;-81
2021/05/25 00:19:21;;;;;;;1.17;1.17;;;9.30;99.90;;;;;;4750132;30;20064;-80
2021/05/25 00:21:49;;;;;;;0.73;0.73;;;9.00;99.90;;;;;;4734371;30;20059;-82
2021/05/25 00:24:18;;;;;;;1.48;1.30;;;8.90;99.90;;;;;;4734453;30;20581;-81
2021/05/25 00:26:51;;;;;;;4.97;2.08;;;8.90;99.90;;;;;;4749865;30;20048;-82
2021/05/25 00:29:19;;;;;;;2.08;1.92;;;8.80;99.90;;;;;;4748728;30;20059;-83
2021/05/25 00:32:01;;;;;;;2.20;2.08;;;8.70;99.90;;;;;;4735198;30;20750;-83
2021/05/25 00:34:31;;;;;;;1.55;1.17;;;8.60;99.90;;;;;;4751217;30;20085;-79
2021/05/25 00:36:59;;;;;;;1.58;1.48;;;8.50;99.90;;;;;;4753542;30;20055;-82
2021/05/25 00:39:27;;;;;;;1.45;1.35;;;8.40;99.90;;;;;;4720333;30;20423;-84
2021/05/25 00:42:00;;;;;;;3.25;1.45;;;8.30;99.90;;;;;;4720773;30;20071;-82
2021/05/25 00:44:28;;;;;;;1.55;1.45;;;8.20;99.90;;;;;;4750200;30;20060;-83
2021/05/25 00:47:06;;;;;;;1.10;1.00;;;8.20;99.90;;;;;;4726143;30;20063;-83
2021/05/25 00:49:34;;;;;;;2.75;1.00;;;8.10;99.90;;;;;;4720826;30;20074;-84
2021/05/25 00:52:05;;;;;;;0.88;0.88;;;8.10;99.90;;;;;;4720539;30;20079;-86
2021/05/25 00:54:38;;;;;;;2.13;1.52;;;8.10;99.90;;;;;;4734386;30;20067;-83
2021/05/25 00:57:06;;;;;;;0.80;0.80;;;8.10;99.90;;;;;;4734901;30;20048;-85
2021/05/25 00:59:34;;;;;;;1.02;1.02;;;8.00;99.90;;;;;;4750952;30;20060;-84
2021/05/25 01:02:02;;;;;;;1.30;1.20;;;8.00;99.90;;;;;;4702579;30;20053;-85
2021/05/25 01:04:30;;;;;;;1.23;1.23;;;8.00;99.90;;;;;;4733431;30;20721;-84
2021/05/25 01:06:58;;;;;;;1.08;0.98;;;7.90;99.90;;;;;;4717611;30;20068;-84
2021/05/25 01:09:30;;;;;;;1.13;1.02;;;7.90;99.90;;;;;;4732243;30;20055;-84
2021/05/25 01:12:01;;;;;;;1.40;1.30;;;7.90;99.90;;;;;;4703025;30;20522;-84
2021/05/25 01:14:36;;;;;;;1.05;1.00;;;7.90;99.90;;;;;;4716997;30;20063;-84
2021/05/25 01:17:04;;;;;;;1.55;1.25;;;7.90;99.90;;;;;;4702074;30;20500;-79
2021/05/25 01:19:32;;;;;;;0.82;0.82;;;7.90;99.90;;;;;;4733080;30;20563;-84
2021/05/25 01:22:01;;;;;;;1.08;0.90;;;7.80;99.90;;;;;;4712963;30;20051;-84
2021/05/25 01:24:31;;;;;;;0.80;0.80;;;7.90;99.90;;;;;;4733555;30;20073;-83
2021/05/25 01:27:05;;;;;;;0.73;0.73;;;7.80;99.90;;;;;;4749127;30;20059;-84
2021/05/25 01:29:35;;;;;;;0.85;0.85;;;7.80;99.90;;;;;;4716386;30;20418;-84
2021/05/25 01:32:03;;;;;;;1.27;1.17;;;7.80;99.90;;;;;;4717540;30;20059;-82
2021/05/25 01:34:31;;;;;;;0.98;0.90;;;7.80;99.90;;;;;;4734726;30;20063;-83
2021/05/25 01:36:59;;;;;;;0.90;0.90;;;7.70;99.90;;;;;;4738365;30;20410;-83
2021/05/25 01:39:27;;;;;;;0.85;0.85;;;7.70;99.90;;;;;;4705181;30;20063;-81
2021/05/25 01:42:04;;;;;;;1.10;1.10;;;7.70;99.90;;;;;;4719789;30;20061;-84
2021/05/25 01:44:36;;;;;;;3.85;1.45;;;7.70;99.90;;;;;;4716707;30;20412;-82
2021/05/25 01:47:03;;;;;;;6.07;1.15;;;7.60;99.90;;;;;;4717613;30;20053;-82
2021/05/25 01:49:31;;;;;;;1.10;0.93;;;7.60;99.90;;;;;;4687823;30;20057;-82
2021/05/25 01:52:02;;;;;;;1.75;0.77;;;7.60;99.90;;;;;;4702736;30;20061;-83
2021/05/25 01:54:34;;;;;;;1.27;1.00;;;7.60;99.90;;;;;;4701561;30;20165;-83
2021/05/25 01:57:08;;;;;;;1.85;1.35;;;7.50;99.90;;;;;;4687802;30;20045;-82
2021/05/25 01:59:36;;;;;;;2.60;0.90;;;7.50;99.90;;;;;;4702568;30;20057;-81
2021/05/25 02:02:05;;;;;;;2.67;1.10;;;7.50;99.90;;;;;;4716198;30;20053;-83
2021/05/25 02:04:33;;;;;;;0.82;0.82;;;7.50;99.90;;;;;;4701946;30;20061;-83
2021/05/25 02:07:01;;;;;;;0.80;0.80;;;7.40;99.90;;;;;;4708230;30;20064;-82
2021/05/25 02:09:36;;;;;;;1.13;0.80;;;7.40;99.90;;;;;;4711373;30;20060;-82
2021/05/25 02:12:04;;;;;;;1.85;0.80;;;7.40;99.90;;;;;;4734078;30;20052;-81
2021/05/25 02:14:32;;;;;;;1.00;1.00;;;7.40;99.90;;;;;;4727943;30;20052;-81
2021/05/25 02:17:00;;;;;;;1.05;1.05;;;7.30;99.90;;;;;;4702011;30;20060;-81
2021/05/25 02:19:28;;;;;;;0.57;0.57;;;7.30;99.90;;;;;;4687807;30;20057;-82
2021/05/25 02:21:56;;;;;;;1.60;1.50;;;7.30;99.90;;;;;;4701710;30;20499;-83
2021/05/25 02:24:24;;;;;;;0.73;0.70;;;7.30;99.90;;;;;;4687091;30;20075;-82
2021/05/25 02:26:52;;;;;;;0.90;0.90;;;7.20;99.90;;;;;;4702653;30;20492;-82
2021/05/25 02:29:26;;;;;;;3.60;0.90;;;7.20;99.90;;;;;;4688911;30;20056;-82
2021/05/25 02:31:55;;;;;;;0.70;0.70;;;7.20;99.90;;;;;;4702227;30;20407;-82
2021/05/25 02:35:05;;;;;;;0.80;0.80;;;7.20;99.90;;;;;;4699624;30;20079;-82
2021/05/25 02:37:34;;;;;;;;;;;7.10;99.90;;;;;;4707935;30;20060;-81
2021/05/25 02:40:04;;;;;;;3.88;0.95;;;7.20;99.90;;;;;;4745392;30;19930;-81
2021/05/25 02:42:32;;;;;;;1.80;1.70;;;7.20;99.90;;;;;;4716248;30;20060;-81
2021/05/25 02:45:01;;;;;;;5.97;1.25;;;7.20;99.90;;;;;;4730629;30;20048;-81
2021/05/25 02:47:29;;;;;;;0.63;0.63;;;7.10;99.90;;;;;;4740253;30;20056;-81
2021/05/25 02:50:06;;;;;;;3.78;0.70;;;7.10;99.90;;;;;;4704296;30;20056;-82
2021/05/25 02:52:40;;;;;;;5.88;1.90;;;7.10;99.90;;;;;;4690428;30;20049;-81
2021/05/25 02:55:16;;;;;;;7.25;1.05;;;7.10;99.90;;;;;;4732608;30;20064;-82
2021/05/25 02:57:47;;;;;;;3.03;0.82;;;7.10;99.90;;;;;;4725214;30;20441;-81
2021/05/25 03:00:19;;;;;;;0.70;0.60;;;7.00;99.90;;;;;;4750927;30;20063;-81
2021/05/25 03:02:48;;;;;;;0.65;0.65;;;7.00;99.90;;;;;;4753124;30;20060;-81
2021/05/25 03:05:18;;;;;;;14.55;1.35;;;7.00;99.90;;;;;;4750759;30;20056;-81
2021/05/25 03:07:47;;;;;;;1.00;1.00;;;7.00;99.90;;;;;;4750474;30;20052;-80
2021/05/25 03:10:17;;;;;;;1.50;1.02;;;7.00;99.90;;;;;;4749526;30;20615;-82
2021/05/25 03:12:46;;;;;;;6.40;1.02;;;7.00;99.90;;;;;;4731045;30;20407;-80
2021/05/25 03:15:17;;;;;;;3.47;1.00;;;7.00;99.90;;;;;;4751494;30;20398;-80
2021/05/25 03:17:45;;;;;;;1.50;1.40;;;7.00;99.90;;;;;;4729600;30;20055;-81
2021/05/25 03:20:15;;;;;;;1.45;0.65;;;7.00;99.90;;;;;;4707003;30;20056;-80
2021/05/25 03:23:08;;;;;;;0.82;0.82;;;7.00;99.90;;;;;;4720721;30;20048;-81
2021/05/25 03:26:06;;;;;;;6.47;1.17;;;7.00;99.90;;;;;;4641567;30;20049;-81
2021/05/25 03:29:18;;;;;;;3.90;1.60;;;6.90;99.90;;;;;;4679568;30;20080;-81
2021/05/25 03:31:46;;;;;;;1.75;1.25;;;6.90;99.90;;;;;;4675971;30;20057;-77
2021/05/25 03:34:14;;;;;;;1.70;1.60;;;6.90;99.90;;;;;;4662615;30;20055;-83
2021/05/25 03:36:42;;;;;;;1.23;0.75;;;6.90;99.90;;;;;;4716040;30;20040;-82
2021/05/25 03:39:13;;;;;;;2.58;1.30;;;6.90;99.90;;;;;;4735737;30;20059;-81
2021/05/25 03:41:41;;;;;;;0.80;0.80;;;6.90;99.90;;;;;;4720669;30;20052;-80
2021/05/25 03:44:13;;;;;;;3.95;1.33;;;6.90;99.90;;;;;;4719264;30;20057;-81
2021/05/25 03:46:45;;;;;;;5.30;1.05;;;7.00;99.90;;;;;;4681845;30;20064;-80
2021/05/25 03:49:15;;;;;;;;;;;7.00;99.90;;;;;;4704008;30;20067;-80
2021/05/25 03:52:22;;;;;;;0.85;0.85;;;7.00;99.90;;;;;;4701823;30;19933;-81
2021/05/25 04:06:05;;;;;;;4.32;1.23;;;7.00;99.90;;;;;;4603417;31;20062;-80
2021/05/25 04:10:01;;;;;;;1.90;1.08;;;7.00;99.90;;;;;;4549458;31;20530;-80
2021/05/25 04:14:58;;;;;;;1.27;1.15;;;7.00;99.90;;;;;;4563965;31;20053;-80
2021/05/25 04:19:42;;;;;;;5.03;1.65;;;7.10;99.90;;;;;;4597715;31;20427;-81
2021/05/25 04:29:44;;;;;;;1.10;1.10;;;7.10;99.90;;;;;;4563507;31;20146;-81
2021/05/25 04:32:31;;;;;;;0.75;0.63;;;7.00;99.90;;;;;;4602996;30;20058;-81
2021/05/25 04:35:05;;;;;;;2.03;1.88;;;7.10;99.90;;;;;;4706462;30;20053;-82
2021/05/25 04:37:36;;;;;;;1.27;0.95;;;7.10;99.90;;;;;;4716023;30;20110;-81
2021/05/25 04:40:06;;;;;;;2.15;1.08;;;7.10;99.90;;;;;;4713757;30;20045;-83
2021/05/25 04:42:42;;;;;;;2.00;0.80;;;7.20;99.90;;;;;;4685102;30;20060;-81
2021/05/25 04:45:14;;;;;;;0.80;0.80;;;7.10;99.90;;;;;;4702192;30;20060;-80
2021/05/25 04:47:46;;;;;;;4.68;3.13;;;7.10;99.90;;;;;;4704973;30;20083;-81
2021/05/25 04:50:19;;;;;;;1.90;0.90;;;7.10;99.90;;;;;;4706432;30;20419;-82
2021/05/25 04:52:54;;;;;;;0.60;0.60;;;7.00;99.90;;;;;;4705984;30;20048;-81
2021/05/25 04:55:23;;;;;;;0.90;0.90;;;7.00;99.90;;;;;;4698099;30;20052;-82
2021/05/25 04:57:54;;;;;;;1.40;1.00;;;7.00;99.90;;;;;;4734341;30;20067;-81
2021/05/25 05:00:25;;;;;;;2.75;1.00;;;7.00;99.90;;;;;;4722624;29;20063;-81
2021/05/25 05:03:22;;;;;;;2.05;1.08;;;7.00;99.90;;;;;;4749029;30;20056;-81
2021/05/25 05:06:03;;;;;;;8.27;1.23;;;7.00;99.90;;;;;;4719754;30;20044;-81
2021/05/25 05:08:32;;;;;;;1.15;0.85;;;7.00;99.90;;;;;;4694974;30;20054;-81
2021/05/25 05:11:03;;;;;;;7.20;1.17;;;7.00;99.90;;;;;;4686463;30;20049;-80
2021/05/25 05:14:00;;;;;;;0.98;0.73;;;7.00;99.90;;;;;;4708807;30;20052;-80
2021/05/25 05:16:30;;;;;;;2.38;1.58;;;7.00;99.90;;;;;;4706736;30;20067;-80
2021/05/25 05:19:09;;;;;;;1.33;1.02;;;7.00;99.90;;;;;;4703151;30;20056;-80
2021/05/25 05:21:56;;;;;;;1.10;1.00;;;7.00;99.90;;;;;;4689451;30;20565;-82
2021/05/25 05:24:27;;;;;;;3.03;2.83;;;7.00;99.90;;;;;;4700823;30;20075;-81
2021/05/25 05:27:01;;;;;;;4.70;1.02;;;7.00;99.90;;;;;;4701471;30;20063;-81
2021/05/25 05:29:41;;;;;;;1.85;0.75;;;7.00;99.90;;;;;;4729201;30;20048;-83
2021/05/25 05:32:15;;;;;;;1.20;0.85;;;7.00;99.90;;;;;;4686916;30;20090;-80
2021/05/25 05:35:07;;;;;;;1.10;1.10;;;7.00;99.90;;;;;;4699297;30;20057;-80
2021/05/25 05:37:40;;;;;;;2.92;1.30;;;7.10;99.90;;;;;;4655582;30;20538;-81
2021/05/25 05:40:10;;;;;;;2.10;1.17;;;7.10;99.90;;;;;;4682464;30;20060;-80
2021/05/25 05:43:06;;;;;;;2.55;1.65;;;7.10;99.90;;;;;;4674675;30;20436;-80
2021/05/25 05:45:42;;;;;;;1.40;1.30;;;7.10;99.90;;;;;;4680474;30;20061;-80
2021/05/25 05:48:19;;;;;;;4.63;0.90;;;7.10;99.90;;;;;;4657800;30;20140;-80
2021/05/25 05:50:50;;;;;;;1.30;1.20;;;7.20;99.90;;;;;;4654867;30;20053;-80
2021/05/25 05:53:44;;;;;;;2.00;1.38;;;7.30;99.90;;;;;;4677328;30;20053;-80
2021/05/25 05:56:38;;;;;;;1.05;0.90;;;7.20;99.90;;;;;;4680215;30;20107;-81
2021/05/25 05:59:31;;;;;;;1.20;1.10;;;7.20;99.90;;;;;;4689961;30;20428;-80
2021/05/25 06:02:08;;;;;;;3.40;1.20;;;7.30;99.90;;;;;;4683005;30;20109;-81
2021/05/25 06:04:51;;;;;;;1.67;1.27;;;7.30;99.90;;;;;;4692125;30;20056;-80
2021/05/25 06:07:36;;;;;;;4.68;2.75;;;7.40;99.90;;;;;;4696051;30;20057;-85
2021/05/25 06:10:10;;;;;;;1.55;1.42;;;7.30;99.90;;;;;;4668892;30;20054;-81
2021/05/25 06:12:40;;;;;;;7.18;1.50;;;7.30;99.90;;;;;;4650875;30;20049;-80
2021/05/25 06:15:12;;;;;;;4.30;1.98;;;7.30;99.90;;;;;;4628974;30;20069;-83
2021/05/25 06:17:48;;;;;;;2.83;0.95;;;7.30;99.90;;;;;;4680824;30;20049;-83
2021/05/25 06:20:49;;;;;;;;;;;;;;;;;;;;;
2021/05/25 06:29:08;;;;;;;1.37;1.27;;;7.20;99.90;;;;;;4712686;30;20333;-85
2021/05/25 06:36:36;;;;;;;2.95;0.85;;;7.20;99.90;;;;;;4653955;30;20412;-81
2021/05/25 06:43:08;;;;;;;1.40;0.98;;;7.20;99.90;;;;;;4898258;24;20056;-82
2021/05/25 06:45:47;;;;;;;9.90;4.90;;;7.20;99.90;;;;;;4732779;30;20064;-82
2021/05/25 06:48:16;;;;;;;1.33;0.75;;;7.30;99.90;;;;;;4748424;30;20056;-82
2021/05/25 06:50:55;;;;;;;7.32;1.13;;;7.30;99.90;;;;;;4720449;30;20052;-82
2021/05/25 06:53:25;;;;;;;1.65;1.30;;;7.40;99.90;;;;;;4718032;30;20056;-84
2021/05/25 06:55:53;;;;;;;6.28;1.70;;;7.50;99.90;;;;;;4720314;30;20063;-82
2021/05/25 06:58:30;;;;;;;6.93;1.17;;;7.60;99.90;;;;;;4735031;30;20052;-81
2021/05/25 07:00:58;;;;;;;2.60;1.48;;;7.70;99.90;;;;;;4733254;30;20480;-82
2021/05/25 07:03:26;;;;;;;3.78;1.40;;;7.80;99.90;;;;;;4748854;30;20071;-81
2021/05/25 07:05:54;;;;;;;3.83;1.10;;;8.00;99.90;;;;;;4733510;30;20067;-82
2021/05/25 07:08:22;;;;;;;2.20;1.00;;;8.30;99.90;;;;;;4717236;30;20063;-83
2021/05/25 07:10:53;;;;;;;2.78;1.27;;;8.30;99.90;;;;;;4732449;30;20056;-82
2021/05/25 07:13:21;;;;;;;12.82;3.55;;;8.30;99.90;;;;;;4719970;30;20048;-84
2021/05/25 07:15:51;;;;;;;1.08;1.08;;;8.30;99.90;;;;;;4736001;30;20407;-81
2021/05/25 07:18:33;;;;;;;3.45;1.70;;;8.40;99.90;;;;;;4731969;30;20056;-85
2021/05/25 07:22:03;;;;;;;2.50;1.30;;;8.60;99.90;;;;;;4719309;30;20055;-84
2021/05/25 07:24:54;;;;;;;5.35;2.10;;;8.80;99.90;;;;;;4733574;30;20063;-84
2021/05/25 07:27:36;;;;;;;2.13;1.80;;;9.10;99.90;;;;;;4733349;30;20063;-84
2021/05/25 07:30:37;;;;;;;7.25;1.33;;;8.90;99.90;;;;;;4704207;30;20387;-84
2021/05/25 07:33:37;;;;;;;0.88;0.80;;;8.80;99.90;;;;;;4698800;30;20045;-84
2021/05/25 07:36:18;;;;;;;1.48;1.38;;;8.70;99.90;;;;;;4747897;30;20056;-84
2021/05/25 07:38:49;;;;;;;1.20;1.10;;;8.60;99.90;;;;;;4733396;30;20530;-84
2021/05/25 07:41:18;;;;;;;4.20;2.78;;;8.60;99.90;;;;;;4745530;30;20056;-83
2021/05/25 07:43:56;;;;;;;3.75;1.35;;;8.60;99.90;;;;;;4745483;30;20570;-83
2021/05/25 07:46:37;;;;;;;3.28;1.05;;;8.70;99.90;;;;;;4744891;30;20048;-82
2021/05/25 07:49:08;;;;;;;1.08;0.90;;;8.80;99.90;;;;;;4746256;30;20052;-84
2021/05/25 07:51:49;;;;;;;0.95;0.95;;;8.90;99.90;;;;;;4747551;30;20064;-80
2021/05/25 07:54:17;;;;;;;4.30;1.00;;;8.80;99.90;;;;;;4746177;30;20503;-79
2021/05/25 07:56:45;;;;;;;1.77;1.67;;;8.80;99.90;;;;;;4747617;30;20059;-78
2021/05/25 07:59:13;;;;;;;1.20;1.00;;;8.90;99.90;;;;;;4747725;30;20056;-78
2021/05/25 08:01:42;;;;;;;6.22;1.83;;;8.90;99.90;;;;;;4746274;30;20063;-79
2021/05/25 08:04:10;;;;;;;6.57;1.80;;;9.00;99.90;;;;;;4747697;30;20060;-79
2021/05/25 08:06:38;;;;;;;3.80;1.27;;;8.90;99.90;;;;;;4749367;30;20060;-81
2021/05/25 08:09:06;;;;;;;7.65;2.33;;;8.80;99.90;;;;;;4748080;30;20044;-77
2021/05/25 08:11:34;;;;;;;2.67;1.25;;;8.80;99.90;;;;;;4749633;30;20071;-77
2021/05/25 08:14:05;;;;;;;0.93;0.93;;;8.70;99.90;;;;;;4749984;30;20052;-78
2021/05/25 08:16:35;;;;;;;1.38;0.80;;;8.80;99.90;;;;;;4750060;30;20060;-80
2021/05/25 08:19:24;;;;;;;4.03;1.00;;;8.80;99.90;;;;;;4750243;30;20443;-80
2021/05/25 08:21:52;;;;;;;4.00;0.90;;;9.10;99.90;;;;;;4749019;30;20056;-78
2021/05/25 08:24:29;;;;;;;2.92;1.23;;;9.50;99.90;;;;;;4732357;30;20060;-78
2021/05/25 08:26:57;;;;;;;1.02;1.00;;;9.60;99.50;;;;;;4750182;30;20056;-79
2021/05/25 08:29:40;;;;;;;2.60;1.10;;;9.50;99.90;;;;;;4749561;30;20044;-79
2021/05/25 08:32:08;;;;;;;3.92;0.93;;;9.50;99.90;;;;;;4749577;30;20126;-79
2021/05/25 08:34:36;;;;;;;4.60;1.65;;;9.60;99.90;;;;;;4748987;30;20063;-78
2021/05/25 08:37:04;;;;;;;1.25;1.10;;;9.60;99.90;;;;;;4763538;30;20063;-78
2021/05/25 08:39:32;;;;;;;2.75;1.45;;;9.70;99.60;;;;;;4766281;30;20079;-79
2021/05/25 08:42:00;;;;;;;1.95;0.95;;;9.80;99.90;;;;;;4766429;30;20063;-79
2021/05/25 08:44:29;;;;;;;1.70;1.05;;;9.80;98.70;;;;;;4766965;30;20067;-79
2021/05/25 08:46:57;;;;;;;1.38;1.02;;;10.10;99.90;;;;;;4758586;30;20064;-80
2021/05/25 08:49:25;;;;;;;0.95;0.70;;;10.20;99.50;;;;;;4749096;30;20052;-78
2021/05/25 08:51:54;;;;;;;2.35;1.67;;;10.20;98.30;;;;;;4748998;30;20149;-78
2021/05/25 08:54:22;;;;;;;1.00;0.98;;;10.00;97.50;;;;;;4747628;30;20396;-80
2021/05/25 08:56:50;;;;;;;5.43;1.20;;;9.90;99.30;;;;;;4733446;30;20060;-79
2021/05/25 08:59:18;;;;;;;3.35;1.15;;;9.90;98.90;;;;;;4749649;30;20068;-79
2021/05/25 09:01:46;;;;;;;3.45;1.38;;;9.80;98.10;;;;;;4747562;30;20056;-79
2021/05/25 09:04:15;;;;;;;0.93;0.80;;;10.00;99.90;;;;;;4748797;30;20091;-78
2021/05/25 09:06:49;;;;;;;2.83;0.95;;;10.30;99.90;;;;;;4749867;30;20071;-79
2021/05/25 09:09:19;;;;;;;3.00;0.88;;;10.40;98.30;;;;;;4747658;30;20069;-79
2021/05/25 09:12:04;;;;;;;10.45;1.20;;;10.30;99.90;;;;;;4748640;30;20056;-78
2021/05/25 09:14:33;;;;;;;1.98;1.08;;;10.20;98.30;;;;;;4748975;30;20583;-79
2021/05/25 09:17:22;;;;;;;2.83;0.93;;;10.30;99.90;;;;;;4749073;30;20060;-79
2021/05/25 09:19:54;;;;;;;2.42;1.38;;;10.30;99.70;;;;;;4748916;30;20086;-80
2021/05/25 09:22:42;;;;;;;1.90;1.80;;;10.50;99.90;;;;;;4748738;30;20056;-79
2021/05/25 09:25:18;;;;;;;1.58;1.48;;;10.90;96.80;;;;;;4747395;30;20056;-79
2021/05/25 09:28:00;;;;;;;1.75;1.20;;;11.20;97.60;;;;;;4719444;30;20056;-79
2021/05/25 09:30:30;;;;;;;1.67;0.87;;;11.40;96.70;;;;;;4748152;30;20044;-78
2021/05/25 09:32:59;;;;;;;1.90;0.90;;;11.50;97.00;;;;;;4748376;30;20059;-78
2021/05/25 09:35:33;;;;;;;1.33;1.02;;;11.10;94.60;;;;;;4750946;30;20108;-79
2021/05/25 09:38:11;;;;;;;3.90;1.63;;;11.10;96.70;;;;;;4750347;30;20059;-79
2021/05/25 09:40:45;;;;;;;2.03;0.73;;;11.20;95.50;;;;;;4750638;30;20052;-79
2021/05/25 09:43:14;;;;;;;2.40;1.05;;;11.10;95.00;;;;;;4766579;30;20523;-78
2021/05/25 09:46:13;;;;;;;1.45;0.60;;;10.80;96.40;;;;;;4766424;30;20044;-79
2021/05/25 09:48:44;;;;;;;0.85;0.70;;;10.80;95.50;;;;;;4766142;30;20050;-79
2021/05/25 09:51:24;;;;;;;3.35;1.45;;;10.80;96.70;;;;;;4766127;30;20442;-79
2021/05/25 09:53:59;;;;;;;0.57;0.50;;;10.90;97.00;;;;;;4764739;30;20059;-79
2021/05/25 09:56:28;;;;;;;0.60;0.60;;;10.80;94.80;;;;;;4767883;30;20496;-78
2021/05/25 09:59:00;;;;;;;2.85;1.63;;;10.80;95.20;;;;;;4770359;30;20060;-79
2021/05/25 10:01:35;;;;;;;3.65;1.08;;;10.80;93.50;;;;;;4768914;30;20059;-79
2021/05/25 10:04:11;;;;;;;1.65;0.77;;;10.80;96.40;;;;;;4770042;30;20063;-80
2021/05/25 10:06:41;;;;;;;4.22;1.15;;;10.90;95.90;;;;;;4769670;30;20052;-78
2021/05/25 10:09:09;;;;;;;1.60;0.70;;;10.80;95.90;;;;;;4760637;30;20060;-80
2021/05/25 10:11:41;;;;;;;3.50;0.95;;;10.80;95.20;;;;;;4751882;30;20737;-78
2021/05/25 10:14:11;;;;;;;1.85;1.75;;;10.80;96.10;;;;;;4751977;30;20184;-79
2021/05/25 10:16:44;;;;;;;1.55;0.73;;;10.70;92.30;;;;;;4735692;30;20048;-79
2021/05/25 10:21:44;;;;;;;0.80;0.60;;;10.90;92.10;;;;;;4750718;30;20052;-79
2021/05/25 10:24:13;;;;;;;0.93;0.93;;;11.10;91.40;;;;;;4750614;30;20067;-77
2021/05/25 10:26:41;;;;;;;1.90;0.57;;;11.20;91.50;;;;;;4751573;30;20052;-79
2021/05/25 10:29:09;;;;;;;2.47;0.73;;;11.40;90.40;;;;;;4751468;30;20048;-79
2021/05/25 10:31:43;;;;;;;0.60;0.60;;;11.70;90.90;;;;;;4751562;30;20044;-78
2021/05/25 10:34:11;;;;;;;0.98;0.98;;;11.70;88.30;;;;;;4751268;30;20095;-78
2021/05/25 10:36:49;;;;;;;1.88;0.60;;;11.60;90.90;;;;;;4746596;30;20055;-80
2021/05/25 10:39:35;;;;;;;2.50;1.02;;;11.60;91.60;;;;;;4768145;30;20502;-79
2021/05/25 10:42:18;;;;;;;10.18;1.48;;;11.50;90.60;;;;;;4768758;30;20048;-78
2021/05/25 10:44:59;;;;;;;1.05;0.95;;;11.90;92.20;;;;;;4769250;30;20498;-78
2021/05/25 10:47:37;;;;;;;;;;;12.30;91.50;;;;;;4757286;30;20055;-78
2021/05/25 10:52:59;;;;;;;0.40;0.40;;;12.10;90.60;;;;;;4751520;30;20071;-78
2021/05/25 10:55:38;;;;;;;1.65;0.65;;;11.90;90.20;;;;;;4750371;30;20048;-79
2021/05/25 10:58:19;;;;;;;0.93;0.68;;;11.90;91.60;;;;;;4751096;30;20593;-78
2021/05/25 11:00:48;;;;;;;0.75;0.70;;;12.30;92.00;;;;;;4750912;30;20052;-78
2021/05/25 11:03:28;;;;;;;2.60;0.70;;;12.80;91.60;;;;;;4751372;30;20407;-78
2021/05/25 11:06:03;;;;;;;3.83;1.02;;;12.90;88.10;;;;;;4751314;30;20384;-78
2021/05/25 11:08:37;;;;;;;1.50;1.02;;;12.50;84.70;;;;;;4749265;30;20063;-79
2021/05/25 11:11:05;;;;;;;1.48;1.38;;;12.50;86.50;;;;;;4751179;30;20068;-77
2021/05/25 11:13:38;;;;;;;1.85;0.88;;;12.10;88.70;;;;;;4751128;30;20045;-78
2021/05/25 11:16:19;;;;;;;1.50;0.70;;;12.00;87.20;;;;;;4751464;30;20060;-77
2021/05/25 11:24:37;;;;;;;1.95;1.08;;;12.30;87.20;;;;;;4749190;30;20059;-77
2021/05/25 11:27:15;;;;;;;13.52;3.97;;;12.50;86.50;;;;;;4751038;30;20063;-77
2021/05/25 11:29:51;;;;;;;8.43;1.48;;;12.30;87.60;;;;;;4750550;30;20498;-77
2021/05/25 11:32:24;;;;;;;2.03;1.23;;;12.00;84.50;;;;;;4750616;30;20061;-77
2021/05/25 11:34:55;;;;;;;4.95;1.35;;;12.20;87.50;;;;;;4750795;30;20058;-78
2021/05/25 11:37:24;;;;;;;7.82;2.53;;;12.30;84.50;;;;;;4766262;30;20494;-77
2021/05/25 11:39:54;;;;;;;1.75;0.82;;;12.20;86.90;;;;;;4766569;30;20423;-78
2021/05/25 11:42:26;;;;;;;3.83;0.90;;;12.10;84.60;;;;;;4768001;30;20063;-78
2021/05/25 11:44:55;;;;;;;2.42;2.08;;;12.00;85.90;;;;;;4768069;30;20436;-78
2021/05/25 11:47:23;;;;;;;2.47;0.85;;;12.00;87.00;;;;;;4768619;30;20372;-79
2021/05/25 11:49:52;;;;;;;3.72;1.10;;;12.10;87.80;;;;;;4767420;30;20044;-79
2021/05/25 11:52:28;;;;;;;3.17;0.70;;;12.30;79.40;;;;;;4767378;30;20062;-79
2021/05/25 11:54:58;;;;;;;4.85;1.02;;;12.80;81.50;;;;;;4766911;30;20055;-81
2021/05/25 11:57:35;;;;;;;2.63;0.90;;;12.80;82.00;;;;;;4768148;30;20054;-77
2021/05/25 12:00:10;;;;;;;0.80;0.80;;;13.10;82.20;;;;;;4768122;30;20074;-79
2021/05/25 12:02:51;;;;;;;1.65;1.25;;;13.10;81.20;;;;;;4767399;30;20376;-79
2021/05/25 12:05:25;;;;;;;9.70;2.08;;;13.50;82.20;;;;;;4767441;30;20051;-80
2021/05/25 12:07:58;;;;;;;3.97;0.80;;;13.40;75.70;;;;;;4768332;30;20507;-78
2021/05/25 12:10:30;;;;;;;0.70;0.70;;;13.20;80.20;;;;;;4748361;30;20056;-80
2021/05/25 12:13:04;;;;;;;5.32;1.25;;;13.50;79.30;;;;;;4749960;30;20052;-77
2021/05/25 12:15:47;;;;;;;3.05;0.57;;;13.20;78.20;;;;;;4750306;30;20423;-79
2021/05/25 12:18:21;;;;;;;2.58;0.55;;;13.30;82.70;;;;;;4749429;30;20060;-80
2021/05/25 12:20:55;;;;;;;3.88;0.73;;;13.60;77.70;;;;;;4748936;30;20503;-79
2021/05/25 12:23:28;;;;;;;1.35;0.73;;;13.70;79.90;;;;;;4748396;30;20060;-80
2021/05/25 12:26:18;;;;;;;1.52;0.80;;;13.50;76.50;;;;;;4750069;30;20044;-79
2021/05/25 12:28:50;;;;;;;4.90;1.00;;;13.50;79.10;;;;;;4749797;30;20040;-80
2021/05/25 12:31:19;;;;;;;0.90;0.68;;;13.50;75.40;;;;;;4749521;30;20419;-79
2021/05/25 12:33:50;;;;;;;2.90;0.60;;;13.50;78.50;;;;;;4733236;30;20049;-79
2021/05/25 12:36:21;;;;;;;1.90;1.05;;;13.60;80.40;;;;;;4738737;30;20059;-77
2021/05/25 12:39:09;;;;;;;4.25;0.70;;;13.80;75.60;;;;;;4748704;30;20071;-77
2021/05/25 12:41:49;;;;;;;0.40;0.40;;;14.00;73.00;;;;;;4715849;30;20056;-78
2021/05/25 12:44:27;;;;;;;1.17;0.73;;;13.80;72.70;;;;;;4732040;30;20057;-79
2021/05/25 12:47:07;;;;;;;3.72;0.85;;;13.60;73.00;;;;;;4732355;30;20063;-78
2021/05/25 12:49:42;;;;;;;4.30;1.20;;;13.80;74.90;;;;;;4731857;30;20052;-79
2021/05/25 12:52:27;;;;;;;0.63;0.60;;;14.00;80.20;;;;;;4731660;30;20057;-80
2021/05/25 12:54:57;;;;;;;1.42;1.00;;;14.40;72.30;;;;;;4727821;30;20057;-79
2021/05/25 12:57:48;;;;;;;8.18;0.63;;;14.30;77.10;;;;;;4732037;30;20052;-78
2021/05/25 13:00:38;;;;;;;1.80;0.80;;;14.20;78.10;;;;;;4731271;30;20056;-79
2021/05/25 13:03:30;;;;;;;3.72;1.67;;;14.00;75.00;;;;;;4731772;30;20408;-79
2021/05/25 13:06:14;;;;;;;4.75;0.63;;;13.60;77.10;;;;;;4731516;30;20060;-79
2021/05/25 13:08:45;;;;;;;0.85;0.70;;;13.80;78.30;;;;;;4729963;30;20048;-78
2021/05/25 13:11:12;;;;;;;1.67;0.85;;;13.80;78.60;;;;;;4731160;30;20063;-80
2021/05/25 13:13:44;;;;;;;3.03;0.80;;;14.00;76.70;;;;;;4730297;30;20056;-80
2021/05/25 13:16:20;;;;;;;8.57;1.75;;;13.90;74.00;;;;;;4731910;30;20056;-80
2021/05/25 13:18:50;;;;;;;15.05;1.27;;;13.30;73.80;;;;;;4728556;30;20052;-80
2021/05/25 13:21:22;;;;;;;2.80;0.85;;;13.40;72.80;;;;;;4730777;30;20059;-79
2021/05/25 13:24:00;;;;;;;3.72;1.25;;;13.60;73.60;;;;;;4730070;30;20154;-77
2021/05/25 13:26:33;;;;;;;12.00;1.27;;;13.50;75.70;;;;;;4731378;30;20428;-77
2021/05/25 13:29:11;;;;;;;7.85;1.38;;;13.50;69.60;;;;;;4731161;30;20053;-77
2021/05/25 13:31:41;;;;;;;2.63;0.80;;;13.50;64.70;;;;;;4730556;30;20086;-79
2021/05/25 13:34:24;;;;;;;2.20;0.95;;;13.40;61.00;;;;;;4731008;30;20057;-79
2021/05/25 13:36:53;;;;;;;8.77;1.25;;;13.50;64.20;;;;;;4743423;30;20431;-78
2021/05/25 13:39:22;;;;;;;7.85;2.53;;;13.60;62.70;;;;;;4747670;30;20064;-78
2021/05/25 13:41:51;;;;;;;9.20;1.60;;;13.80;63.20;;;;;;4761230;30;20068;-80
2021/05/25 13:44:19;;;;;;;3.90;1.38;;;13.90;64.40;;;;;;4748428;30;20068;-79
2021/05/25 13:46:47;;;;;;;0.70;0.70;;;13.60;65.60;;;;;;4747919;30;20060;-79
2021/05/25 13:49:15;;;;;;;0.60;0.60;;;13.80;70.50;;;;;;4747937;30;20404;-78
2021/05/25 13:51:44;;;;;;;3.05;0.80;;;13.70;72.40;;;;;;4761759;30;20064;-76
2021/05/25 13:54:12;;;;;;;6.43;1.35;;;14.10;66.80;;;;;;4747592;30;20507;-77
2021/05/25 13:56:46;;;;;;;5.88;1.50;;;14.00;67.30;;;;;;4748752;30;20059;-80
2021/05/25 13:59:16;;;;;;;2.97;1.08;;;14.00;73.00;;;;;;4749186;30;20064;-77
2021/05/25 14:01:48;;;;;;;4.45;1.13;;;13.70;67.70;;;;;;4748036;30;20056;-78
2021/05/25 14:04:18;;;;;;;0.70;0.70;;;13.50;66.40;;;;;;4748050;30;20064;-80
2021/05/25 14:06:46;;;;;;;6.43;0.88;;;13.80;69.60;;;;;;4747866;30;20056;-78
2021/05/25 14:09:15;;;;;;;3.40;0.88;;;14.00;68.70;;;;;;4736700;30;20533;-77
2021/05/25 14:11:43;;;;;;;9.40;1.50;;;14.00;68.10;;;;;;4729424;30;20064;-80
2021/05/25 14:14:11;;;;;;;2.17;1.73;;;13.90;66.50;;;;;;4730535;30;20053;-79
2021/05/25 14:16:39;;;;;;;3.17;1.42;;;13.80;71.20;;;;;;4730951;30;20059;-78
2021/05/25 14:19:08;;;;;;;3.28;0.80;;;13.80;66.90;;;;;;4731058;30;20056;-81
2021/05/25 14:21:36;;;;;;;1.33;1.02;;;13.70;70.10;;;;;;4730321;30;20057;-78